Time,TemperatureF,DewpointF,PressureIn,WindDirection,WindDirectionDegrees,WindSpeedMPH,WindSpeedGustMPH,Humidity,HourlyPrecipIn,Conditions,Clouds,dailyrainin,SoftwareType,DateUTC
2013-06-09 00:06:00,56.7,54.0,30.07,SW,234,0.0,-999.0,91,-99.99,,,0.00,weatherlink.com 1.10,2013-06-09 04:06:00,
2013-06-09 00:21:00,56.6,54.0,30.07,SE,138,0.0,-999.0,91,-99.99,,,0.00,weatherlink.com 1.10,2013-06-09 04:21:00,
2013-06-09 00:36:00,56.8,54.0,30.07,SSE,168,0.0,-999.0,91,-99.99,,,0.00,weatherlink.com 1.10,2013-06-09 04:36:00,
2013-06-09 00:51:00,56.8,54.0,30.07,South,169,0.0,-999.0,89,-99.99,,,0.00,weatherlink.com 1.10,2013-06-09 04:51:00,
2013-06-09 01:06:00,56.2,53.0,30.07,South,169,0.0,-999.0,90,-99.99,,,0.00,weatherlink.com 1.10,2013-06-09 05:06:00,
2013-06-09 01:21:00,55.9,53.0,30.08,South,169,0.0,-999.0,91,-99.99,,,0.00,weatherlink.com 1.10,2013-06-09 05:21:00,
2013-06-09 01:36:00,56.1,54.0,30.08,SW,230,0.0,-999.0,91,-99.99,,,0.00,weatherlink.com 1.10,2013-06-09 05:36:00,
2013-06-09 01:51:00,55.9,53.0,30.08,South,174,0.0,-999.0,91,-99.99,,,0.00,weatherlink.com 1.10,2013-06-09 05:51:00,
2013-06-09 02:06:00,55.5,53.0,30.08,South,174,0.0,-999.0,92,-99.99,,,0.00,weatherlink.com 1.10,2013-06-09 06:06:00,
2013-06-09 02:21:00,55.2,53.0,30.08,SSW,205,0.0,-999.0,93,-99.99,,,0.00,weatherlink.com 1.10,2013-06-09 06:21:00,
2013-06-09 02:36:00,54.6,53.0,30.08,SSW,198,0.0,-999.0,94,-99.99,,,0.00,weatherlink.com 1.10,2013-06-09 06:36:00,
2013-06-09 02:51:00,53.8,52.0,30.09,SSW,198,0.0,-999.0,94,-99.99,,,0.00,weatherlink.com 1.10,2013-06-09 06:51:00,
2013-06-09 03:06:00,53.1,52.0,30.09,South,178,0.0,-999.0,95,-99.99,,,0.00,weatherlink.com 1.10,2013-06-09 07:06:00,
2013-06-09 03:21:00,52.4,51.0,30.10,South,178,0.0,-999.0,95,-99.99,,,0.00,weatherlink.com 1.10,2013-06-09 07:21:00,
2013-06-09 03:36:00,51.9,51.0,30.10,South,178,0.0,-999.0,96,-99.99,,,0.00,weatherlink.com 1.10,2013-06-09 07:36:00,
2013-06-09 03:51:00,51.4,50.0,30.10,South,178,0.0,-999.0,96,-99.99,,,0.00,weatherlink.com 1.10,2013-06-09 07:51:00,
2013-06-09 04:06:00,51.0,50.0,30.11,South,178,0.0,-999.0,97,-99.99,,,0.00,weatherlink.com 1.10,2013-06-09 08:06:00,
2013-06-09 04:21:00,50.7,50.0,30.11,South,177,0.0,-999.0,97,-99.99,,,0.00,weatherlink.com 1.10,2013-06-09 08:21:00,
2013-06-09 04:36:00,50.8,50.0,30.12,South,178,0.0,-999.0,97,-99.99,,,0.00,weatherlink.com 1.10,2013-06-09 08:36:00,
2013-06-09 04:51:00,50.8,50.0,30.12,South,177,0.0,-999.0,97,-99.99,,,0.00,weatherlink.com 1.10,2013-06-09 08:51:00,
2013-06-09 05:06:00,50.7,50.0,30.12,South,178,0.0,-999.0,96,-99.99,,,0.00,weatherlink.com 1.10,2013-06-09 09:06:00,
2013-06-09 05:21:00,50.6,50.0,30.13,South,177,0.0,-999.0,96,-99.99,,,0.00,weatherlink.com 1.10,2013-06-09 09:21:00,
2013-06-09 05:36:00,50.5,49.0,30.13,South,178,0.0,-999.0,96,-99.99,,,0.00,weatherlink.com 1.10,2013-06-09 09:36:00,
2013-06-09 05:51:00,50.6,50.0,30.13,South,178,0.0,-999.0,96,-99.99,,,0.00,weatherlink.com 1.10,2013-06-09 09:51:00,
2013-06-09 06:06:00,50.8,50.0,30.13,South,178,0.0,-999.0,95,-99.99,,,0.00,weatherlink.com 1.10,2013-06-09 10:06:00,
2013-06-09 06:21:00,51.3,50.0,30.14,South,178,0.0,-999.0,95,-99.99,,,0.00,weatherlink.com 1.10,2013-06-09 10:21:00,
2013-06-09 06:36:00,51.9,50.0,30.15,South,177,0.0,-999.0,94,-99.99,,,0.00,weatherlink.com 1.10,2013-06-09 10:36:00,
2013-06-09 06:51:00,52.6,51.0,30.16,South,178,0.0,-999.0,94,-99.99,,,0.00,weatherlink.com 1.10,2013-06-09 10:51:00,
2013-06-09 07:21:00,54.3,52.0,30.16,South,178,0.0,-999.0,92,-99.99,,,0.00,weatherlink.com 1.10,2013-06-09 11:21:00,
2013-06-09 07:36:00,55.1,53.0,30.16,SSE,168,0.0,-999.0,92,-99.99,,,0.00,weatherlink.com 1.10,2013-06-09 11:36:00,
2013-06-09 07:51:00,55.8,53.0,30.16,SSE,167,0.0,-999.0,91,-99.99,,,0.00,weatherlink.com 1.10,2013-06-09 11:51:00,
2013-06-09 08:06:00,56.8,54.0,30.17,South,179,0.0,-999.0,90,-99.99,,,0.00,weatherlink.com 1.10,2013-06-09 12:06:00,
2013-06-09 08:21:00,58.3,55.0,30.17,SSE,163,0.0,-999.0,87,-99.99,,,0.00,weatherlink.com 1.10,2013-06-09 12:21:00,
2013-06-09 08:36:00,59.7,56.0,30.18,SE,145,1.0,-999.0,86,-99.99,,,0.00,weatherlink.com 1.10,2013-06-09 12:36:00,
2013-06-09 08:51:00,60.4,56.0,30.18,WSW,256,0.0,-999.0,84,-99.99,,,0.00,weatherlink.com 1.10,2013-06-09 12:51:00,
2013-06-09 09:06:00,61.4,57.0,30.18,SW,234,0.0,-999.0,84,-99.99,,,0.00,weatherlink.com 1.10,2013-06-09 13:06:00,
2013-06-09 09:21:00,63.0,57.0,30.17,SSW,207,0.0,-999.0,80,-99.99,,,0.00,weatherlink.com 1.10,2013-06-09 13:21:00,
2013-06-09 09:51:00,65.3,57.0,30.17,NW,308,1.0,-999.0,75,-99.99,,,0.00,weatherlink.com 1.10,2013-06-09 13:51:00,
2013-06-09 10:06:00,66.7,58.0,30.16,WSW,239,0.0,-999.0,73,-99.99,,,0.00,weatherlink.com 1.10,2013-06-09 14:06:00,
2013-06-09 10:21:00,68.9,58.0,30.16,WNW,286,0.0,-999.0,68,-99.99,,,0.00,weatherlink.com 1.10,2013-06-09 14:21:00,
2013-06-09 10:36:00,69.8,59.0,30.16,East,84,0.0,-999.0,69,-99.99,,,0.00,weatherlink.com 1.10,2013-06-09 14:36:00,
2013-06-09 10:51:00,69.7,57.0,30.16,NNW,336,0.0,-999.0,64,-99.99,,,0.00,weatherlink.com 1.10,2013-06-09 14:51:00,
2013-06-09 11:06:00,69.9,56.0,30.16,WSW,242,0.0,-999.0,61,-99.99,,,0.00,weatherlink.com 1.10,2013-06-09 15:06:00,
2013-06-09 11:21:00,71.4,56.0,30.16,SSE,154,0.0,-999.0,59,-99.99,,,0.00,weatherlink.com 1.10,2013-06-09 15:21:00,
2013-06-09 11:51:00,72.2,56.0,30.16,WSW,247,1.0,-999.0,57,-99.99,,,0.00,weatherlink.com 1.10,2013-06-09 15:51:00,
2013-06-09 12:06:00,73.0,56.0,30.15,ESE,114,0.0,-999.0,56,-99.99,,,0.00,weatherlink.com 1.10,2013-06-09 16:06:00,
2013-06-09 12:21:00,73.2,54.0,30.15,SE,128,0.0,-999.0,51,-99.99,,,0.00,weatherlink.com 1.10,2013-06-09 16:21:00,
2013-06-09 12:36:00,74.3,55.0,30.14,East,96,0.0,-999.0,52,-99.99,,,0.00,weatherlink.com 1.10,2013-06-09 16:36:00,
2013-06-09 12:51:00,74.4,54.0,30.14,NE,37,0.0,-999.0,49,-99.99,,,0.00,weatherlink.com 1.10,2013-06-09 16:51:00,
2013-06-09 13:06:00,75.0,54.0,30.14,ESE,111,1.0,-999.0,49,-99.99,,,0.00,weatherlink.com 1.10,2013-06-09 17:06:00,
2013-06-09 13:21:00,74.8,55.0,30.13,SE,146,1.0,-999.0,51,-99.99,,,0.00,weatherlink.com 1.10,2013-06-09 17:21:00,
2013-06-09 13:36:00,74.4,56.0,30.13,NW,305,1.0,-999.0,52,-99.99,,,0.00,weatherlink.com 1.10,2013-06-09 17:36:00,
2013-06-09 13:51:00,76.4,59.0,30.12,ESE,110,1.0,-999.0,55,-99.99,,,0.00,weatherlink.com 1.10,2013-06-09 17:51:00,
2013-06-09 14:06:00,76.7,58.0,30.12,SE,124,0.0,-999.0,52,-99.99,,,0.00,weatherlink.com 1.10,2013-06-09 18:06:00,
2013-06-09 14:21:00,76.1,55.0,30.12,ENE,63,0.0,-999.0,48,-99.99,,,0.00,weatherlink.com 1.10,2013-06-09 18:21:00,
2013-06-09 14:36:00,77.0,53.0,30.12,NW,315,1.0,-999.0,44,-99.99,,,0.00,weatherlink.com 1.10,2013-06-09 18:36:00,
2013-06-09 14:51:00,76.9,53.0,30.12,WNW,295,0.0,-999.0,43,-99.99,,,0.00,weatherlink.com 1.10,2013-06-09 18:51:00,
2013-06-09 15:06:00,77.1,54.0,30.12,SE,139,2.0,-999.0,45,-99.99,,,0.00,weatherlink.com 1.10,2013-06-09 19:06:00,
2013-06-09 15:21:00,77.8,55.0,30.11,SE,139,0.0,-999.0,45,-99.99,,,0.00,weatherlink.com 1.10,2013-06-09 19:21:00,
2013-06-09 15:36:00,76.7,55.0,30.11,ESE,115,0.0,-999.0,47,-99.99,,,0.00,weatherlink.com 1.10,2013-06-09 19:36:00,
2013-06-09 15:51:00,77.5,54.0,30.11,South,171,0.0,-999.0,44,-99.99,,,0.00,weatherlink.com 1.10,2013-06-09 19:51:00,
2013-06-09 16:06:00,77.7,54.0,30.10,South,180,0.0,-999.0,44,-99.99,,,0.00,weatherlink.com 1.10,2013-06-09 20:06:00,
2013-06-09 16:36:00,78.1,55.0,30.09,WSW,254,0.0,-999.0,45,-99.99,,,0.00,weatherlink.com 1.10,2013-06-09 20:36:00,
2013-06-09 16:53:00,76.7,55.0,30.09,SE,126,0.0,-999.0,48,-99.99,,,0.00,weatherlink.com 1.10,2013-06-09 20:53:00,
2013-06-09 17:21:00,77.2,55.0,30.09,ENE,59,2.0,-999.0,47,-99.99,,,0.00,weatherlink.com 1.10,2013-06-09 21:21:00,
2013-06-09 17:36:00,77.6,56.0,30.09,NW,314,1.0,-999.0,48,-99.99,,,0.00,weatherlink.com 1.10,2013-06-09 21:36:00,
2013-06-09 17:51:00,78.4,56.0,30.08,East,91,2.0,-999.0,47,-99.99,,,0.00,weatherlink.com 1.10,2013-06-09 21:51:00,
2013-06-09 18:06:00,78.3,54.0,30.08,SE,125,0.0,-999.0,43,-99.99,,,0.00,weatherlink.com 1.10,2013-06-09 22:06:00,
2013-06-09 18:21:00,78.8,56.0,30.08,SE,127,0.0,-999.0,45,-99.99,,,0.00,weatherlink.com 1.10,2013-06-09 22:21:00,
2013-06-09 18:36:00,77.5,56.0,30.08,SE,128,2.0,-999.0,47,-99.99,,,0.00,weatherlink.com 1.10,2013-06-09 22:36:00,
2013-06-09 18:51:00,76.5,55.0,30.08,SE,131,0.0,-999.0,48,-99.99,,,0.00,weatherlink.com 1.10,2013-06-09 22:51:00,
2013-06-09 19:21:00,74.6,56.0,30.07,ESE,116,0.0,-999.0,53,-99.99,,,0.00,weatherlink.com 1.10,2013-06-09 23:21:00,
2013-06-09 19:37:00,73.6,56.0,30.08,SE,127,0.0,-999.0,54,-99.99,,,0.00,weatherlink.com 1.10,2013-06-09 23:37:00,
2013-06-09 19:51:00,72.9,56.0,30.08,SE,140,0.0,-999.0,56,-99.99,,,0.00,weatherlink.com 1.10,2013-06-09 23:51:00,
2013-06-09 20:06:00,72.3,56.0,30.08,ESE,117,0.0,-999.0,57,-99.99,,,0.00,weatherlink.com 1.10,2013-06-10 00:06:00,
2013-06-09 20:22:00,71.6,56.0,30.08,ESE,119,0.0,-999.0,59,-99.99,,,0.00,weatherlink.com 1.10,2013-06-10 00:22:00,
2013-06-09 20:37:00,70.3,57.0,30.09,ESE,118,0.0,-999.0,64,-99.99,,,0.00,weatherlink.com 1.10,2013-06-10 00:37:00,
2013-06-09 20:51:00,69.4,58.0,30.08,ESE,112,0.0,-999.0,67,-99.99,,,0.00,weatherlink.com 1.10,2013-06-10 00:51:00,
2013-06-09 21:07:00,68.5,58.0,30.08,SSE,164,0.0,-999.0,70,-99.99,,,0.00,weatherlink.com 1.10,2013-06-10 01:07:00,
2013-06-09 21:21:00,67.9,58.0,30.08,ESE,109,0.0,-999.0,71,-99.99,,,0.00,weatherlink.com 1.10,2013-06-10 01:21:00,
2013-06-09 21:36:00,67.3,58.0,30.08,South,179,0.0,-999.0,73,-99.99,,,0.00,weatherlink.com 1.10,2013-06-10 01:36:00,
2013-06-09 21:51:00,66.6,58.0,30.08,SSE,158,0.0,-999.0,75,-99.99,,,0.00,weatherlink.com 1.10,2013-06-10 01:51:00,
2013-06-09 22:06:00,66.2,58.0,30.08,SSE,158,0.0,-999.0,76,-99.99,,,0.00,weatherlink.com 1.10,2013-06-10 02:06:00,
2013-06-09 22:21:00,65.9,58.0,30.08,SSE,159,0.0,-999.0,76,-99.99,,,0.00,weatherlink.com 1.10,2013-06-10 02:21:00,
2013-06-09 22:36:00,65.6,58.0,30.08,ESE,117,0.0,-999.0,75,-99.99,,,0.00,weatherlink.com 1.10,2013-06-10 02:36:00,
2013-06-09 22:51:00,65.4,57.0,30.08,SSE,155,0.0,-999.0,75,-99.99,,,0.00,weatherlink.com 1.10,2013-06-10 02:51:00,
2013-06-09 23:06:00,65.1,57.0,30.07,SW,219,0.0,-999.0,75,-99.99,,,0.00,weatherlink.com 1.10,2013-06-10 03:06:00,
2013-06-09 23:21:00,65.0,57.0,30.06,SSE,158,0.0,-999.0,75,-99.99,,,0.00,weatherlink.com 1.10,2013-06-10 03:21:00,
2013-06-09 23:51:00,64.6,57.0,30.06,East,98,0.0,-999.0,75,-99.99,,,0.00,weatherlink.com 1.10,2013-06-10 03:51:00,